createdAt,value
2018-01-07T00:00:16.537Z,5.10
2018-01-07T00:02:44.107Z,5.10
2018-01-07T00:05:11.746Z,5.13
2018-01-07T00:07:39.315Z,5.07
2018-01-07T00:10:06.885Z,5.05
2018-01-07T00:12:34.462Z,4.99
2018-01-07T00:15:02.249Z,5.03
2018-01-07T00:17:29.891Z,4.95
2018-01-07T00:19:57.457Z,4.97
2018-01-07T00:22:25.019Z,4.95
2018-01-07T00:24:52.617Z,4.99
2018-01-07T00:27:20.182Z,4.93
2018-01-07T00:29:47.795Z,4.92
2018-01-07T00:32:15.466Z,4.91
2018-01-07T00:34:43.294Z,4.86
2018-01-07T00:37:10.850Z,4.74
2018-01-07T00:39:38.452Z,4.76
2018-01-07T00:42:06.247Z,4.67
2018-01-07T00:44:33.814Z,4.59
2018-01-07T00:47:01.394Z,4.51
2018-01-07T00:49:28.992Z,4.46
2018-01-07T00:51:56.687Z,4.43
2018-01-07T00:54:24.307Z,4.36
2018-01-07T00:56:52.054Z,4.31
2018-01-07T00:59:19.634Z,4.37
2018-01-07T01:01:47.352Z,4.44
2018-01-07T01:04:15.022Z,4.51
2018-01-07T01:06:42.719Z,4.56
2018-01-07T01:09:10.545Z,4.48
2018-01-07T01:11:38.364Z,4.45
2018-01-07T01:14:06.184Z,4.43
2018-01-07T01:16:33.901Z,4.44
2018-01-07T01:19:01.516Z,4.49
2018-01-07T01:21:29.238Z,4.46
2018-01-07T01:23:56.956Z,4.34
2018-01-07T01:26:24.522Z,4.18
2018-01-07T01:28:52.078Z,4.12
2018-01-07T01:31:19.822Z,4.21
2018-01-07T01:33:47.628Z,4.27
2018-01-07T01:36:15.176Z,4.26
2018-01-07T01:38:42.745Z,4.20
2018-01-07T01:41:10.367Z,4.09
2018-01-07T01:43:37.984Z,4.09
2018-01-07T01:46:05.563Z,4.08
2018-01-07T01:48:33.310Z,4.06
2018-01-07T01:51:00.884Z,4.11
2018-01-07T01:53:28.668Z,4.14
2018-01-07T01:55:57.120Z,4.20
2018-01-07T01:58:24.686Z,4.20
2018-01-07T02:00:52.250Z,4.16
2018-01-07T02:03:19.831Z,4.14
2018-01-07T02:05:47.394Z,4.15
2018-01-07T02:08:15.143Z,4.11
2018-01-07T02:10:42.885Z,4.02
2018-01-07T02:13:10.598Z,3.99
2018-01-07T02:15:38.181Z,3.97
2018-01-07T02:18:05.761Z,3.97
2018-01-07T02:20:33.450Z,3.91
2018-01-07T02:23:01.189Z,3.96
2018-01-07T02:25:28.751Z,3.94
2018-01-07T02:27:56.334Z,3.84
2018-01-07T02:30:23.898Z,3.79
2018-01-07T02:32:51.662Z,3.78
2018-01-07T02:35:19.228Z,3.76
2018-01-07T02:37:46.790Z,3.75
2018-01-07T02:40:14.518Z,3.68
2018-01-07T02:42:42.333Z,3.65
2018-01-07T02:45:09.953Z,3.59
2018-01-07T02:47:37.514Z,3.51
2018-01-07T02:50:05.090Z,3.50
2018-01-07T02:52:32.905Z,3.42
2018-01-07T02:55:00.625Z,3.47
2018-01-07T02:57:28.307Z,3.39
2018-01-07T02:59:55.977Z,3.38
2018-01-07T03:02:23.542Z,3.43
2018-01-07T03:04:51.298Z,3.43
2018-01-07T03:07:18.863Z,3.44
2018-01-07T03:09:46.563Z,3.40
2018-01-07T03:12:14.142Z,3.45
2018-01-07T03:14:41.867Z,3.51
2018-01-07T03:17:09.569Z,3.52
2018-01-07T03:19:37.127Z,3.56
2018-01-07T03:22:05.023Z,3.55
2018-01-07T03:24:32.588Z,3.49
2018-01-07T03:27:00.154Z,3.46
2018-01-07T03:29:27.978Z,3.50
2018-01-07T03:31:55.543Z,3.43
2018-01-07T03:34:23.154Z,3.37
2018-01-07T03:36:50.931Z,3.30
2018-01-07T03:39:18.750Z,3.34
2018-01-07T03:41:46.318Z,3.30
2018-01-07T03:44:14.086Z,3.22
2018-01-07T03:46:41.715Z,3.26
2018-01-07T03:49:09.278Z,3.27
2018-01-07T03:51:36.842Z,3.26
2018-01-07T03:54:04.416Z,3.22
2018-01-07T03:56:32.175Z,3.22
2018-01-07T03:58:59.993Z,3.25
2018-01-07T04:01:27.596Z,3.24
2018-01-07T04:03:55.151Z,3.29
2018-01-07T04:06:22.724Z,3.35
2018-01-07T04:08:51.154Z,3.30
2018-01-07T04:11:18.771Z,3.33
2018-01-07T04:13:46.466Z,3.41
2018-01-07T04:16:14.031Z,3.42
2018-01-07T04:21:08.617Z,3.35
2018-01-07T04:23:36.240Z,3.31
2018-01-07T04:26:03.813Z,3.31
2018-01-07T04:28:31.370Z,3.33
2018-01-07T04:30:58.942Z,3.40
2018-01-07T04:33:26.522Z,3.40
2018-01-07T04:35:54.142Z,3.32
2018-01-07T04:38:21.702Z,3.21
2018-01-07T04:40:49.497Z,3.17
2018-01-07T04:43:17.216Z,3.09
2018-01-07T04:45:44.779Z,3.03
2018-01-07T04:48:12.403Z,2.95
2018-01-07T04:50:39.966Z,2.75
2018-01-07T04:53:07.507Z,2.99
2018-01-07T04:55:35.215Z,2.94
2018-01-07T04:58:02.773Z,2.86
2018-01-07T05:00:30.390Z,2.82
2018-01-07T05:02:57.950Z,2.82
2018-01-07T05:05:25.590Z,2.77
2018-01-07T05:07:53.174Z,2.72
2018-01-07T05:10:20.734Z,2.69
2018-01-07T05:12:48.630Z,2.67
2018-01-07T05:15:16.193Z,2.67
2018-01-07T05:17:43.758Z,2.70
2018-01-07T05:20:11.375Z,2.59
2018-01-07T05:22:38.934Z,2.62
2018-01-07T05:25:06.719Z,2.60
2018-01-07T05:27:34.433Z,2.61
2018-01-07T05:30:02.156Z,2.62
2018-01-07T05:32:29.731Z,2.61
2018-01-07T05:34:57.293Z,2.57
2018-01-07T05:37:24.913Z,2.59
2018-01-07T05:39:52.480Z,2.63
2018-01-07T05:42:20.191Z,2.67
2018-01-07T05:44:47.742Z,2.72
2018-01-07T05:47:15.486Z,2.68
2018-01-07T05:49:43.094Z,2.63
2018-01-07T05:52:10.662Z,2.64
2018-01-07T05:54:38.435Z,2.65
2018-01-07T05:57:06.254Z,2.67
2018-01-07T05:59:33.974Z,2.70
2018-01-07T06:02:01.627Z,2.71
2018-01-07T06:04:29.191Z,2.68
2018-01-07T06:06:56.926Z,2.62
2018-01-07T06:09:25.133Z,2.60
2018-01-07T06:11:52.842Z,2.53
2018-01-07T06:14:20.463Z,2.61
2018-01-07T06:16:48.023Z,2.60
2018-01-07T06:19:15.670Z,2.67
2018-01-07T06:21:43.408Z,2.72
2018-01-07T06:24:11.123Z,2.79
2018-01-07T06:26:38.750Z,2.85
2018-01-07T06:29:06.642Z,2.91
2018-01-07T06:31:34.202Z,2.92
2018-01-07T06:34:02.909Z,2.87
2018-01-07T06:36:30.632Z,2.95
2018-01-07T06:38:58.468Z,3.03
2018-01-07T06:41:26.286Z,3.03
2018-01-07T06:43:53.859Z,3.08
2018-01-07T06:46:21.622Z,3.15
2018-01-07T06:48:49.310Z,3.27
2018-01-07T06:51:17.059Z,3.32
2018-01-07T06:53:44.622Z,3.31
2018-01-07T06:56:12.201Z,3.43
2018-01-07T06:58:39.781Z,3.47
2018-01-07T07:01:07.331Z,3.56
2018-01-07T07:03:35.046Z,3.57
2018-01-07T07:06:02.766Z,3.67
2018-01-07T07:08:30.485Z,3.82
2018-01-07T07:10:58.303Z,4.07
2018-01-07T07:13:25.847Z,4.23
2018-01-07T07:15:53.459Z,4.34
2018-01-07T07:18:21.148Z,4.53
2018-01-07T07:20:48.710Z,4.72
2018-01-07T07:23:16.281Z,5.02
2018-01-07T07:25:43.854Z,5.87
2018-01-07T07:28:11.614Z,7.28
2018-01-07T07:30:39.183Z,8.87
2018-01-07T07:33:06.964Z,10.24
2018-01-07T07:35:34.545Z,11.20
2018-01-07T07:38:02.214Z,12.31
2018-01-07T07:40:29.825Z,13.58
2018-01-07T07:42:57.638Z,14.11
2018-01-07T07:45:25.202Z,14.30
2018-01-07T07:47:52.794Z,14.34
2018-01-07T07:50:20.591Z,15.31
2018-01-07T07:52:48.329Z,16.21
2018-01-07T07:55:15.893Z,16.75
2018-01-07T07:57:43.552Z,17.14
2018-01-07T08:00:11.154Z,17.18
2018-01-07T08:02:38.726Z,17.16
2018-01-07T08:05:06.384Z,17.71
2018-01-07T08:07:33.954Z,18.45
2018-01-07T08:10:01.735Z,19.20
2018-01-07T08:12:29.334Z,20.00
2018-01-07T08:14:56.899Z,20.28
2018-01-07T08:17:24.511Z,20.42
2018-01-07T08:19:52.076Z,20.41
2018-01-07T08:22:19.674Z,20.13
2018-01-07T08:24:47.442Z,20.28
2018-01-07T08:27:15.010Z,20.14
2018-01-07T08:29:42.632Z,19.86
2018-01-07T08:32:10.288Z,20.38
2018-01-07T08:34:38.114Z,21.06
2018-01-07T08:37:05.694Z,21.46
2018-01-07T08:39:33.267Z,21.31
2018-01-07T08:42:01.049Z,21.23
2018-01-07T08:44:28.625Z,20.91
2018-01-07T08:46:56.251Z,20.81
2018-01-07T08:49:24.023Z,20.98
2018-01-07T08:51:51.610Z,21.21
2018-01-07T08:54:19.245Z,21.27
2018-01-07T08:56:46.934Z,20.76
2018-01-07T08:59:14.586Z,20.71
2018-01-07T09:01:42.177Z,19.99
2018-01-07T09:04:09.762Z,20.14
2018-01-07T09:06:37.422Z,20.28
2018-01-07T09:09:05.064Z,20.51
2018-01-07T09:11:32.655Z,20.67
2018-01-07T09:14:00.387Z,20.53
2018-01-07T09:16:28.131Z,20.93
2018-01-07T09:18:55.774Z,21.24
2018-01-07T09:21:23.536Z,21.28
2018-01-07T09:23:51.118Z,21.56
2018-01-07T09:26:18.694Z,21.48
2018-01-07T09:28:46.294Z,21.47
2018-01-07T09:31:14.229Z,21.19
2018-01-07T09:33:41.799Z,20.97
2018-01-07T09:36:09.536Z,20.97
2018-01-07T09:38:37.110Z,21.15
2018-01-07T09:41:04.684Z,20.81
2018-01-07T09:43:32.413Z,20.87
2018-01-07T09:45:59.983Z,21.30
2018-01-07T09:48:27.755Z,21.45
2018-01-07T09:50:55.340Z,21.09
2018-01-07T09:53:23.052Z,21.16
2018-01-07T09:55:50.711Z,21.57
2018-01-07T09:58:18.275Z,22.06
2018-01-07T10:00:45.847Z,22.16
2018-01-07T10:03:13.432Z,21.94
2018-01-07T10:05:41.053Z,21.96
2018-01-07T10:08:08.655Z,22.01
2018-01-07T10:10:36.618Z,21.83
2018-01-07T10:13:04.196Z,21.45
2018-01-07T10:15:31.767Z,21.29
2018-01-07T10:17:59.572Z,21.29
2018-01-07T10:20:27.199Z,21.16
2018-01-07T10:22:54.775Z,21.12
2018-01-07T10:27:56.336Z,21.28
2018-01-07T10:30:23.914Z,21.59
2018-01-07T10:32:51.534Z,21.76
2018-01-07T10:35:19.320Z,21.71
2018-01-07T10:37:47.032Z,21.87
2018-01-07T10:40:14.747Z,22.15
2018-01-07T10:42:42.319Z,22.71
2018-01-07T10:45:09.951Z,22.87
2018-01-07T10:47:37.518Z,22.61
2018-01-07T10:50:05.086Z,22.42
2018-01-07T10:52:32.739Z,22.31
2018-01-07T10:55:00.334Z,22.14
2018-01-07T10:57:27.974Z,22.25
2018-01-07T10:59:55.790Z,22.44
2018-01-07T11:02:29.115Z,22.77
2018-01-07T11:04:56.855Z,23.31
2018-01-07T11:07:24.486Z,23.49
2018-01-07T11:09:52.067Z,23.42
2018-01-07T11:12:19.634Z,23.40
2018-01-07T11:14:47.319Z,23.10
2018-01-07T11:17:14.935Z,22.93
2018-01-07T11:19:42.504Z,23.01
2018-01-07T11:22:10.075Z,23.22
2018-01-07T11:24:37.659Z,23.37
2018-01-07T11:27:05.274Z,23.83
2018-01-07T11:29:32.843Z,24.22
2018-01-07T11:32:00.418Z,24.65
2018-01-07T11:34:28.082Z,24.90
2018-01-07T11:36:55.671Z,24.79
2018-01-07T11:39:23.398Z,24.62
2018-01-07T11:41:51.047Z,24.77
2018-01-07T11:44:18.810Z,24.41
2018-01-07T11:46:46.367Z,24.49
2018-01-07T11:49:14.018Z,25.03
2018-01-07T11:51:41.638Z,25.71
2018-01-07T11:54:09.407Z,25.83
2018-01-07T11:56:36.986Z,26.20
2018-01-07T11:59:04.665Z,26.41
2018-01-07T12:01:32.468Z,26.31
2018-01-07T12:04:00.166Z,25.75
2018-01-07T12:06:27.787Z,25.26
2018-01-07T12:08:55.824Z,24.99
2018-01-07T12:11:23.432Z,24.75
2018-01-07T12:13:51.011Z,24.53
2018-01-07T12:16:18.883Z,24.28
2018-01-07T12:18:46.461Z,24.46
2018-01-07T12:21:14.317Z,24.19
2018-01-07T12:23:41.977Z,24.06
2018-01-07T12:26:09.551Z,24.23
2018-01-07T12:28:37.190Z,24.33
2018-01-07T12:31:04.770Z,25.19
2018-01-07T12:33:32.346Z,25.47
2018-01-07T12:35:59.930Z,25.81
2018-01-07T12:38:27.501Z,26.28
2018-01-07T12:40:55.138Z,26.84
2018-01-07T12:43:22.722Z,26.90
2018-01-07T12:45:50.342Z,27.25
2018-01-07T12:48:17.903Z,27.79
2018-01-07T12:50:45.447Z,28.05
2018-01-07T12:53:13.066Z,28.14
2018-01-07T12:55:40.771Z,28.22
2018-01-07T12:58:08.341Z,27.71
2018-01-07T13:00:35.983Z,27.81
2018-01-07T13:03:03.635Z,27.97
2018-01-07T13:05:31.268Z,27.48
2018-01-07T13:07:58.833Z,27.51
2018-01-07T13:10:26.398Z,27.88
2018-01-07T13:12:53.995Z,28.29
2018-01-07T13:15:21.569Z,28.34
2018-01-07T13:17:49.358Z,28.74
2018-01-07T13:20:17.144Z,28.68
2018-01-07T13:22:44.964Z,28.66
2018-01-07T13:25:12.536Z,27.85
2018-01-07T13:27:40.136Z,28.06
2018-01-07T13:30:07.810Z,27.99
2018-01-07T13:32:35.382Z,28.14
2018-01-07T13:35:03.011Z,27.72
2018-01-07T13:37:30.638Z,28.06
2018-01-07T13:39:58.243Z,27.72
2018-01-07T13:42:25.934Z,27.87
2018-01-07T13:44:53.495Z,28.04
2018-01-07T13:47:21.124Z,28.23
2018-01-07T13:49:48.850Z,28.52
2018-01-07T13:52:16.531Z,28.15
2018-01-07T13:54:44.690Z,27.96
2018-01-07T13:57:12.417Z,27.43
2018-01-07T13:59:40.018Z,26.77
2018-01-07T14:02:07.852Z,26.14
2018-01-07T14:04:35.471Z,25.46
2018-01-07T14:07:03.374Z,24.59
2018-01-07T14:09:30.966Z,24.06
2018-01-07T14:11:58.622Z,23.88
2018-01-07T14:14:26.475Z,23.78
2018-01-07T14:16:54.992Z,23.42
2018-01-07T14:19:22.787Z,23.46
2018-01-07T14:21:50.363Z,23.23
2018-01-07T14:24:18.094Z,22.88
2018-01-07T14:26:45.939Z,23.00
2018-01-07T14:29:13.757Z,22.78
2018-01-07T14:31:41.576Z,22.36
2018-01-07T14:34:09.394Z,22.16
2018-01-07T14:36:36.989Z,21.19
2018-01-07T14:39:04.705Z,19.95
2018-01-07T14:41:32.357Z,18.95
2018-01-07T14:43:59.989Z,17.94
2018-01-07T14:46:27.678Z,17.49
2018-01-07T14:48:55.487Z,16.76
2018-01-07T14:51:23.069Z,16.37
2018-01-07T14:53:50.857Z,15.82
2018-01-07T14:56:18.515Z,15.52
2018-01-07T14:58:46.276Z,15.19
2018-01-07T15:01:13.858Z,15.01
2018-01-07T15:03:41.454Z,14.82
2018-01-07T15:06:09.007Z,14.59
2018-01-07T15:08:36.652Z,14.36
2018-01-07T15:11:04.233Z,14.12
2018-01-07T15:13:31.806Z,13.92
2018-01-07T15:15:59.600Z,13.85
2018-01-07T15:18:27.419Z,13.72
2018-01-07T15:20:55.132Z,13.57
2018-01-07T15:23:22.718Z,13.42
2018-01-07T15:25:50.290Z,13.17
2018-01-07T15:28:18.001Z,12.99
2018-01-07T15:30:45.810Z,12.83
2018-01-07T15:33:13.630Z,12.82
2018-01-07T15:35:41.376Z,12.78
2018-01-07T15:38:08.955Z,12.74
2018-01-07T15:40:36.532Z,12.69
2018-01-07T15:43:04.197Z,12.63
2018-01-07T15:45:31.873Z,12.57
2018-01-07T15:47:59.466Z,12.32
2018-01-07T15:50:27.256Z,12.27
2018-01-07T15:52:55.174Z,12.16
2018-01-07T15:55:22.779Z,12.01
2018-01-07T15:57:50.462Z,11.82
2018-01-07T16:00:18.033Z,11.83
2018-01-07T16:02:45.696Z,11.83
2018-01-07T16:05:13.324Z,11.78
2018-01-07T16:07:40.898Z,11.79
2018-01-07T16:10:08.693Z,11.68
2018-01-07T16:12:36.318Z,11.67
2018-01-07T16:15:04.062Z,11.52
2018-01-07T16:17:31.727Z,11.38
2018-01-07T16:19:59.324Z,11.38
2018-01-07T16:22:27.051Z,11.33
2018-01-07T16:24:54.629Z,11.40
2018-01-07T16:27:22.230Z,11.43
2018-01-07T16:29:49.866Z,11.41
2018-01-07T16:32:17.424Z,11.41
2018-01-07T16:34:45.283Z,11.38
2018-01-07T16:37:13.099Z,11.25
2018-01-07T16:39:40.678Z,11.10
2018-01-07T16:42:08.275Z,11.03
2018-01-07T16:44:35.862Z,11.02
2018-01-07T16:47:03.512Z,11.02
2018-01-07T16:49:31.289Z,11.00
2018-01-07T16:51:58.870Z,10.92
2018-01-07T16:54:26.483Z,10.86
2018-01-07T16:56:54.214Z,10.74
2018-01-07T16:59:22.064Z,10.70
2018-01-07T17:01:49.848Z,10.65
2018-01-07T17:04:17.435Z,10.63
2018-01-07T17:06:45.098Z,10.60
2018-01-07T17:09:12.719Z,10.47
2018-01-07T17:11:40.470Z,10.46
2018-01-07T17:14:08.271Z,10.35
2018-01-07T17:16:36.093Z,10.14
2018-01-07T17:19:03.801Z,10.03
2018-01-07T17:21:31.387Z,10.07
2018-01-07T17:23:59.040Z,10.05
2018-01-07T17:26:26.753Z,10.02
2018-01-07T17:28:54.582Z,9.97
2018-01-07T17:31:22.194Z,9.94
2018-01-07T17:33:49.870Z,9.92
2018-01-07T17:36:17.511Z,9.91
2018-01-07T17:38:45.133Z,9.80
2018-01-07T17:41:12.715Z,9.72
2018-01-07T17:43:40.297Z,9.66
2018-01-07T17:46:07.879Z,9.59
2018-01-07T17:48:35.724Z,9.54
2018-01-07T17:51:03.428Z,9.48
2018-01-07T17:53:31.275Z,9.40
2018-01-07T17:55:58.900Z,9.29
2018-01-07T17:58:26.466Z,9.26
2018-01-07T18:00:54.315Z,9.25
2018-01-07T18:03:21.902Z,9.16
2018-01-07T18:05:49.574Z,9.07
2018-01-07T18:08:17.166Z,9.08
2018-01-07T18:10:44.988Z,9.07
2018-01-07T18:13:12.636Z,9.08
2018-01-07T18:15:40.211Z,9.00
2018-01-07T18:18:07.833Z,8.93
2018-01-07T18:20:35.663Z,8.95
2018-01-07T18:23:03.235Z,8.91
2018-01-07T18:25:30.865Z,8.88
2018-01-07T18:27:58.429Z,8.75
2018-01-07T18:30:26.023Z,8.76
2018-01-07T18:32:53.602Z,8.70
2018-01-07T18:35:21.368Z,8.70
2018-01-07T18:37:49.263Z,8.67
2018-01-07T18:40:16.979Z,8.68
2018-01-07T18:42:44.574Z,8.65
2018-01-07T18:45:12.316Z,8.75
2018-01-07T18:47:39.951Z,8.67
2018-01-07T18:50:07.646Z,8.54
2018-01-07T18:52:35.488Z,8.43
2018-01-07T18:55:03.315Z,8.35
2018-01-07T18:57:30.901Z,8.32
2018-01-07T18:59:58.523Z,8.27
2018-01-07T19:02:26.178Z,8.27
2018-01-07T19:04:53.801Z,8.26
2018-01-07T19:07:21.391Z,8.19
2018-01-07T19:09:49.017Z,8.19
2018-01-07T19:12:16.602Z,8.15
2018-01-07T19:14:44.435Z,8.08
2018-01-07T19:17:12.150Z,8.06
2018-01-07T19:19:39.866Z,8.12
2018-01-07T19:22:07.505Z,7.97
2018-01-07T19:24:35.078Z,7.87
2018-01-07T19:27:02.710Z,7.88
2018-01-07T19:29:30.300Z,7.88
2018-01-07T19:31:57.875Z,7.83
2018-01-07T19:34:25.707Z,7.88
2018-01-07T19:36:53.294Z,7.91
2018-01-07T19:39:21.033Z,7.93
2018-01-07T19:41:48.869Z,7.90
2018-01-07T19:44:16.444Z,7.82
2018-01-07T19:46:44.194Z,7.66
2018-01-07T19:49:12.013Z,7.65
2018-01-07T19:51:39.659Z,7.56
2018-01-07T19:54:07.330Z,7.50
2018-01-07T19:56:34.902Z,7.37
2018-01-07T19:59:02.684Z,7.27
2018-01-07T20:01:30.388Z,7.21
2018-01-07T20:03:58.122Z,7.18
2018-01-07T20:06:25.705Z,7.21
2018-01-07T20:08:53.349Z,7.29
2018-01-07T20:11:20.952Z,7.31
2018-01-07T20:13:48.520Z,7.29
2018-01-07T20:16:16.156Z,7.27
2018-01-07T20:18:43.736Z,7.30
2018-01-07T20:21:11.534Z,7.29
2018-01-07T20:23:39.366Z,7.21
2018-01-07T20:26:06.990Z,7.16
2018-01-07T20:28:34.622Z,7.10
2018-01-07T20:31:02.204Z,7.09
2018-01-07T20:33:29.778Z,7.06
2018-01-07T20:35:57.400Z,6.95
2018-01-07T20:38:24.980Z,6.95
2018-01-07T20:40:52.791Z,6.93
2018-01-07T20:43:20.354Z,6.96
2018-01-07T20:45:47.930Z,6.98
2018-01-07T20:48:15.746Z,6.95
2018-01-07T20:50:43.330Z,6.97
2018-01-07T20:53:11.073Z,6.96
2018-01-07T20:55:38.900Z,6.94
2018-01-07T20:58:06.483Z,6.94
2018-01-07T21:00:34.336Z,6.95
2018-01-07T21:03:01.902Z,6.99
2018-01-07T21:05:29.635Z,6.96
2018-01-07T21:07:57.383Z,6.91
2018-01-07T21:10:25.210Z,6.72
2018-01-07T21:12:53.028Z,6.63
2018-01-07T21:15:20.614Z,6.57
2018-01-07T21:17:48.233Z,6.44
2018-01-07T21:20:15.806Z,6.38
2018-01-07T21:22:43.600Z,6.36
2018-01-07T21:25:11.205Z,6.33
2018-01-07T21:27:38.936Z,6.26
2018-01-07T21:30:06.707Z,6.22
2018-01-07T21:32:34.472Z,6.30
2018-01-07T21:35:02.047Z,6.36
2018-01-07T21:37:29.809Z,6.42
2018-01-07T21:39:57.378Z,6.50
2018-01-07T21:42:25.010Z,6.54
2018-01-07T21:44:52.620Z,6.60
2018-01-07T21:47:20.198Z,6.68
2018-01-07T21:49:47.999Z,6.68
2018-01-07T21:52:15.573Z,6.61
2018-01-07T21:54:43.202Z,6.57
2018-01-07T21:57:10.782Z,6.53
2018-01-07T22:02:45.510Z,6.49
2018-01-07T22:05:15.982Z,6.53
2018-01-07T22:07:43.565Z,6.39
2018-01-07T22:10:11.138Z,6.35
2018-01-07T22:12:38.766Z,6.37
2018-01-07T22:15:06.526Z,6.38
2018-01-07T22:17:34.099Z,6.28
2018-01-07T22:20:02.064Z,6.20
2018-01-07T22:22:29.883Z,6.13
2018-01-07T22:24:57.701Z,6.14
2018-01-07T22:27:25.663Z,6.10
2018-01-07T22:29:53.440Z,6.07
2018-01-07T22:32:21.257Z,6.11
2018-01-07T22:34:49.281Z,6.14
2018-01-07T22:37:17.095Z,6.16
2018-01-07T22:39:44.914Z,6.10
2018-01-07T22:42:12.528Z,5.99
2018-01-07T22:44:40.250Z,5.93
2018-01-07T22:47:07.859Z,5.94
2018-01-07T22:49:35.685Z,5.93
2018-01-07T22:52:03.295Z,5.97
2018-01-07T22:54:30.865Z,5.98
2018-01-07T22:56:58.442Z,5.97
2018-01-07T22:59:26.015Z,5.96
2018-01-07T23:01:53.586Z,5.87
2018-01-07T23:04:21.166Z,5.86
2018-01-07T23:06:48.753Z,5.86
2018-01-07T23:09:16.316Z,5.74
2018-01-07T23:11:44.046Z,5.69
2018-01-07T23:14:11.630Z,5.63
2018-01-07T23:16:39.206Z,5.61
2018-01-07T23:19:06.785Z,5.57
2018-01-07T23:21:34.371Z,5.56
2018-01-07T23:24:02.117Z,5.48
2018-01-07T23:26:29.694Z,5.48
2018-01-07T23:28:57.316Z,5.44
2018-01-07T23:31:24.882Z,5.31
2018-01-07T23:33:52.492Z,5.25
2018-01-07T23:36:20.224Z,5.02
2018-01-07T23:38:48.045Z,5.36
2018-01-07T23:41:15.862Z,5.38
2018-01-07T23:43:43.681Z,5.37
2018-01-07T23:46:11.249Z,5.35
2018-01-07T23:48:39.018Z,5.37
2018-01-07T23:51:06.590Z,5.43
2018-01-07T23:53:34.272Z,5.46
2018-01-07T23:56:01.860Z,5.41
2018-01-07T23:58:29.689Z,5.35
